TAF PAVD
PAVD 280530Z 2806/2906 06005KT P6SM FEW150 FM282200 11004KT P6SM BKN060 FM290300 VRB03KT P6SM BKN030 AMD LTD TO CLD VIS AND WIND=
METAR PAVD
WC PAVD
WS PAVD
WV PAVD